< < Back
Terminal Aerodrome Forecast


Current Version              Previous Versions:   1  2  3  4  5  6  7  8  9  

Terminal Aerodrome Forecast

454
FTUS42 KFFC 011720
TAFFTY
TAF
KFTY 011720Z 0118/0218 28007KT P6SM FEW045
     FM020000 28002KT P6SM FEW250
     FM021400 28004KT P6SM FEW040=

Latest METAR

952
SAUS70 KWBC 012000 RRK
MTRFTY
METAR KFTY 011953Z 28007KT 10SM CLR 33/11 A2998 RMK AO2 SLP139
T03330106


USA.gov is the U.S. government's official web portal to all federal, state and local government web resources and services.